createdAt,value
2022-12-29T00:01:57.897Z,101581.16
2022-12-29T00:04:35.184Z,101569.88
2022-12-29T00:07:06.183Z,101559.66
2022-12-29T00:09:40.485Z,101557.69
2022-12-29T00:12:13.287Z,101555.59
2022-12-29T00:14:59.688Z,101549.13
2022-12-29T00:17:30.783Z,101551.88
2022-12-29T00:20:22.852Z,101569.91
2022-12-29T00:23:14.015Z,101569.09
2022-12-29T00:26:00.636Z,101575.16
2022-12-29T00:28:46.380Z,101573.53
2022-12-29T00:31:32.618Z,101576.28
2022-12-29T00:34:21.018Z,101564.28
2022-12-29T00:36:51.255Z,101558.91
2022-12-29T00:39:42.751Z,101546.88
2022-12-29T00:42:29.030Z,101553.72
2022-12-29T00:44:56.804Z,101555.34
2022-12-29T00:47:27.796Z,101548.97
2022-12-29T00:50:03.901Z,101559.91
2022-12-29T00:52:37.328Z,101555.22
2022-12-29T00:55:05.207Z,101559.59
2022-12-29T00:57:35.486Z,101548.63
2022-12-29T01:00:06.466Z,101554.03
2022-12-29T01:02:40.356Z,101551.13
2022-12-29T01:05:08.168Z,101545.41
2022-12-29T01:07:40.223Z,101542.59
2022-12-29T01:10:11.335Z,101546.59
2022-12-29T01:12:42.356Z,101555.00
2022-12-29T01:15:14.578Z,101556.69
2022-12-29T01:17:46.142Z,101563.53
2022-12-29T01:20:13.945Z,101557.09
2022-12-29T01:22:48.321Z,101555.34
2022-12-29T01:25:25.544Z,101553.25
2022-12-29T01:27:56.355Z,101549.16
2022-12-29T01:30:27.079Z,101545.19
2022-12-29T01:33:00.532Z,101545.25
2022-12-29T01:35:31.437Z,101551.78
2022-12-29T01:38:02.403Z,101550.69
2022-12-29T01:40:32.773Z,101558.31
2022-12-29T01:43:02.875Z,101554.19
2022-12-29T01:45:30.613Z,101558.16
2022-12-29T01:48:07.907Z,101561.00
2022-12-29T01:50:56.157Z,101571.09
2022-12-29T01:53:31.464Z,101570.38
2022-12-29T01:56:08.332Z,101569.91
2022-12-29T01:58:42.393Z,101560.44
2022-12-29T02:01:14.011Z,101559.81
2022-12-29T02:03:42.383Z,101557.34
2022-12-29T02:06:22.222Z,101547.03
2022-12-29T02:08:53.318Z,101548.84
2022-12-29T02:11:28.784Z,101538.53
2022-12-29T02:14:00.970Z,101532.63
2022-12-29T02:16:42.936Z,101531.44
2022-12-29T02:19:31.628Z,101538.06
2022-12-29T02:22:05.344Z,101527.44
2022-12-29T02:25:10.972Z,101532.47
2022-12-29T02:27:59.193Z,101531.88
2022-12-29T02:30:29.623Z,101523.47
2022-12-29T02:33:29.279Z,101521.84
2022-12-29T02:36:09.067Z,101520.41
2022-12-29T02:38:42.490Z,101530.22
2022-12-29T02:41:34.776Z,101539.38
2022-12-29T02:44:23.955Z,101530.56
2022-12-29T02:46:57.633Z,101528.59
2022-12-29T02:49:40.608Z,101534.53
2022-12-29T02:52:23.595Z,101524.53
2022-12-29T02:54:57.481Z,101517.69
2022-12-29T02:57:30.483Z,101519.25
2022-12-29T03:00:11.592Z,101516.63
2022-12-29T03:03:10.802Z,101514.94
2022-12-29T03:05:57.449Z,101503.09
2022-12-29T03:09:18.838Z,101498.16
2022-12-29T03:12:14.596Z,101512.16
2022-12-29T03:15:36.211Z,101513.41
2022-12-29T03:18:14.508Z,101519.59
2022-12-29T03:20:58.203Z,101528.31
2022-12-29T03:23:28.070Z,101521.59
2022-12-29T03:26:05.374Z,101516.13
2022-12-29T03:28:42.409Z,101503.31
2022-12-29T03:31:26.807Z,101499.25
2022-12-29T03:34:00.682Z,101493.03
2022-12-29T03:36:46.522Z,101494.72
2022-12-29T03:39:22.131Z,101494.59
2022-12-29T03:41:53.831Z,101495.09
2022-12-29T03:44:43.156Z,101495.78
2022-12-29T03:47:14.272Z,101489.16
2022-12-29T03:49:45.162Z,101484.06
2022-12-29T03:52:18.462Z,101484.81
2022-12-29T03:54:48.105Z,101484.00
2022-12-29T03:57:15.880Z,101489.84
2022-12-29T03:59:51.585Z,101507.16
2022-12-29T04:02:25.834Z,101505.34
2022-12-29T04:05:06.568Z,101501.78
2022-12-29T04:07:37.526Z,101494.97
2022-12-29T04:10:15.335Z,101496.44
2022-12-29T04:12:47.797Z,101495.16
2022-12-29T04:15:21.104Z,101500.44
2022-12-29T04:17:56.275Z,101504.00
2022-12-29T04:20:48.157Z,101496.38
2022-12-29T04:23:18.773Z,101499.94
2022-12-29T04:25:48.661Z,101503.03
2022-12-29T04:28:25.204Z,101512.69
2022-12-29T04:31:18.799Z,101510.22
2022-12-29T04:33:50.167Z,101501.69
2022-12-29T04:36:17.608Z,101494.78
2022-12-29T04:38:52.418Z,101485.56
2022-12-29T04:41:20.520Z,101481.13
2022-12-29T04:43:49.260Z,101487.22
2022-12-29T04:46:34.958Z,101497.78
2022-12-29T04:49:13.915Z,101496.56
2022-12-29T04:51:55.900Z,101488.56
2022-12-29T04:54:24.673Z,101505.03
2022-12-29T04:57:08.069Z,101512.22
2022-12-29T04:59:38.838Z,101519.00
2022-12-29T05:02:07.638Z,101506.34
2022-12-29T05:04:39.664Z,101484.22
2022-12-29T05:07:10.809Z,101475.09
2022-12-29T05:09:41.728Z,101479.56
2022-12-29T05:12:13.157Z,101494.78
2022-12-29T05:14:54.180Z,101494.78
2022-12-29T05:17:23.875Z,101492.03
2022-12-29T05:19:51.866Z,101488.47
2022-12-29T05:22:21.610Z,101498.88
2022-12-29T05:24:55.227Z,101509.69
2022-12-29T05:27:26.572Z,101504.03
2022-12-29T05:30:16.569Z,101517.88
2022-12-29T05:32:44.992Z,101516.97
2022-12-29T05:35:12.626Z,101521.34
2022-12-29T05:37:46.239Z,101500.78
2022-12-29T05:40:16.755Z,101502.34
2022-12-29T05:42:45.251Z,101504.44
2022-12-29T05:45:25.844Z,101509.59
2022-12-29T05:48:20.943Z,101513.69
2022-12-29T05:51:29.803Z,101516.25
2022-12-29T05:54:05.016Z,101511.78
2022-12-29T05:56:35.213Z,101514.69
2022-12-29T05:59:08.883Z,101507.84
2022-12-29T06:01:37.354Z,101506.59
2022-12-29T06:04:13.049Z,101504.66
2022-12-29T06:06:49.692Z,101492.88
2022-12-29T06:09:24.721Z,101504.97
2022-12-29T06:11:58.824Z,101507.72
2022-12-29T06:14:27.079Z,101503.16
2022-12-29T06:16:57.824Z,101510.06
2022-12-29T06:19:31.038Z,101517.34
2022-12-29T06:22:01.735Z,101505.25
2022-12-29T06:24:29.859Z,101496.84
2022-12-29T06:26:59.737Z,101498.06
2022-12-29T06:29:38.196Z,101496.44
2022-12-29T06:32:10.992Z,101487.03
2022-12-29T06:34:54.752Z,101485.88
2022-12-29T06:37:27.531Z,101499.59
2022-12-29T06:39:55.938Z,101494.78
2022-12-29T06:42:29.730Z,101501.16
2022-12-29T06:45:19.789Z,101498.31
2022-12-29T06:47:49.518Z,101497.91
2022-12-29T06:50:19.550Z,101504.81
2022-12-29T06:52:52.112Z,101504.50
2022-12-29T06:55:24.667Z,101512.63
2022-12-29T06:57:55.961Z,101507.72
2022-12-29T07:00:24.948Z,101507.72
2022-12-29T07:02:56.149Z,101507.97
2022-12-29T07:05:23.766Z,101510.16
2022-12-29T07:07:52.120Z,101504.50
2022-12-29T07:10:23.690Z,101499.91
2022-12-29T07:12:57.152Z,101512.00
2022-12-29T07:15:30.322Z,101499.59
2022-12-29T07:17:58.794Z,101495.75
2022-12-29T07:20:30.713Z,101502.16
2022-12-29T07:23:00.887Z,101501.34
2022-12-29T07:25:28.872Z,101522.66
2022-12-29T07:28:02.505Z,101527.03
2022-12-29T07:30:34.086Z,101519.69
2022-12-29T07:33:07.794Z,101518.56
2022-12-29T07:35:39.299Z,101509.72
2022-12-29T07:38:09.689Z,101505.31
2022-12-29T07:40:40.162Z,101505.69
2022-12-29T07:43:13.436Z,101507.59
2022-12-29T07:45:54.484Z,101507.59
2022-12-29T07:48:30.559Z,101516.69
2022-12-29T07:51:00.901Z,101523.34
2022-12-29T07:53:31.205Z,101521.44
2022-12-29T07:56:01.674Z,101522.69
2022-12-29T07:58:33.090Z,101538.69
2022-12-29T08:01:07.527Z,101541.66
2022-12-29T08:03:42.618Z,101540.13
2022-12-29T08:06:19.843Z,101541.34
2022-12-29T08:08:50.714Z,101544.47
2022-12-29T08:11:29.525Z,101538.53
2022-12-29T08:14:07.648Z,101543.25
2022-12-29T08:16:38.939Z,101545.25
2022-12-29T08:19:11.429Z,101536.94
2022-12-29T08:21:48.161Z,101554.13
2022-12-29T08:24:18.502Z,101544.34
2022-12-29T08:27:12.025Z,101555.94
2022-12-29T08:29:47.005Z,101558.78
2022-12-29T08:32:15.821Z,101562.38
2022-12-29T08:34:51.320Z,101567.19
2022-12-29T08:37:26.308Z,101567.66
2022-12-29T08:40:05.050Z,101572.47
2022-12-29T08:42:37.594Z,101574.88
2022-12-29T08:45:09.766Z,101569.69
2022-12-29T08:47:41.120Z,101585.91
2022-12-29T08:50:13.451Z,101577.28
2022-12-29T08:52:52.578Z,101571.16
2022-12-29T08:55:26.231Z,101574.84
2022-12-29T08:57:58.547Z,101588.84
2022-12-29T09:00:37.250Z,101589.91
2022-12-29T09:03:07.827Z,101578.84
2022-12-29T09:05:38.919Z,101581.81
2022-12-29T09:08:10.400Z,101575.34
2022-12-29T09:10:41.658Z,101565.03
2022-12-29T09:13:16.144Z,101578.22
2022-12-29T09:15:49.623Z,101579.38
2022-12-29T09:18:27.340Z,101592.03
2022-12-29T09:21:09.136Z,101591.66
2022-12-29T09:23:42.599Z,101588.66
2022-12-29T09:26:12.808Z,101573.22
2022-12-29T09:28:43.990Z,101573.47
2022-12-29T09:31:16.934Z,101564.81
2022-12-29T09:33:47.927Z,101557.75
2022-12-29T09:36:15.939Z,101560.88
2022-12-29T09:38:49.487Z,101559.56
2022-12-29T09:41:25.003Z,101561.13
2022-12-29T09:44:04.286Z,101572.88
2022-12-29T09:46:52.425Z,101563.13
2022-12-29T09:49:44.148Z,101564.19
2022-12-29T09:52:24.970Z,101583.81
2022-12-29T09:55:02.407Z,101574.31
2022-12-29T09:57:43.139Z,101577.09
2022-12-29T10:00:55.453Z,101569.00
2022-12-29T10:03:45.383Z,101562.09
2022-12-29T10:07:28.009Z,101570.84
2022-12-29T10:10:04.770Z,101571.09
2022-12-29T10:12:51.419Z,101562.97
2022-12-29T10:15:50.417Z,101553.69
2022-12-29T10:18:31.458Z,101553.31
2022-12-29T10:21:22.996Z,101559.13
2022-12-29T10:23:54.169Z,101545.00
2022-12-29T10:26:32.884Z,101538.09
2022-12-29T10:29:17.699Z,101548.56
2022-12-29T10:31:59.790Z,101538.75
2022-12-29T10:34:43.374Z,101528.78
2022-12-29T10:37:35.533Z,101518.22
2022-12-29T10:40:18.222Z,101519.41
2022-12-29T10:42:57.907Z,101519.28
2022-12-29T10:45:31.818Z,101515.72
2022-12-29T10:48:25.913Z,101507.78
2022-12-29T10:51:04.171Z,101509.53
2022-12-29T10:53:47.650Z,101515.41
2022-12-29T10:56:47.798Z,101518.53
2022-12-29T10:59:22.541Z,101512.75
2022-12-29T11:02:12.561Z,101512.06
2022-12-29T11:05:25.082Z,101506.34
2022-12-29T11:08:01.199Z,101501.53
2022-12-29T11:10:35.174Z,101497.72
2022-12-29T11:13:26.326Z,101491.75
2022-12-29T11:15:54.097Z,101484.84
2022-12-29T11:18:26.595Z,101483.59
2022-12-29T11:21:02.643Z,101492.06
2022-12-29T11:23:37.024Z,101496.25
2022-12-29T11:26:19.156Z,101503.06
2022-12-29T11:29:08.413Z,101500.78
2022-12-29T11:31:50.730Z,101512.53
2022-12-29T11:34:35.704Z,101501.22
2022-12-29T11:37:16.593Z,101499.97
2022-12-29T11:39:53.304Z,101493.09
2022-12-29T11:42:29.562Z,101484.97
2022-12-29T11:45:10.831Z,101479.72
2022-12-29T11:47:38.785Z,101477.66
2022-12-29T11:50:11.292Z,101485.84
2022-12-29T11:52:40.749Z,101490.78
2022-12-29T11:55:24.289Z,101492.41
2022-12-29T11:57:54.725Z,101493.50
2022-12-29T12:00:28.724Z,101495.41
2022-12-29T12:03:08.684Z,101479.72
2022-12-29T12:05:53.587Z,101478.88
2022-12-29T12:08:36.948Z,101473.56
2022-12-29T12:11:17.549Z,101466.69
2022-12-29T12:13:53.641Z,101439.31
2022-12-29T12:16:25.772Z,101422.75
2022-12-29T12:19:42.158Z,101423.13
2022-12-29T12:22:38.530Z,101427.84
2022-12-29T12:25:14.122Z,101426.78
2022-12-29T12:27:52.560Z,101441.28
2022-12-29T12:30:24.247Z,101439.28
2022-12-29T12:32:59.728Z,101442.09
2022-12-29T12:35:27.351Z,101451.81
2022-12-29T12:38:21.087Z,101464.63
2022-12-29T12:41:00.297Z,101473.38
2022-12-29T12:43:50.647Z,101471.84
2022-12-29T12:46:53.186Z,101476.97
2022-12-29T12:49:29.330Z,101461.72
2022-12-29T12:52:10.147Z,101455.41
2022-12-29T12:54:40.829Z,101434.78
2022-12-29T12:57:18.454Z,101439.16
2022-12-29T13:00:14.747Z,101434.09
2022-12-29T13:03:13.572Z,101432.56
2022-12-29T13:06:02.140Z,101434.94
2022-12-29T13:08:57.767Z,101447.47
2022-12-29T13:11:43.402Z,101460.00
2022-12-29T13:14:32.233Z,101461.63
2022-12-29T13:17:25.906Z,101480.78
2022-12-29T13:20:21.439Z,101461.19
2022-12-29T13:22:58.232Z,101437.13
2022-12-29T13:25:39.134Z,101429.78
2022-12-29T13:28:20.407Z,101426.63
2022-12-29T13:31:22.098Z,101423.47
2022-12-29T13:34:05.096Z,101426.44
2022-12-29T13:36:50.531Z,101434.28
2022-12-29T13:39:31.689Z,101430.06
2022-12-29T13:42:01.819Z,101430.34
2022-12-29T13:44:58.986Z,101425.25
2022-12-29T13:47:42.754Z,101417.22
2022-12-29T13:50:28.788Z,101415.16
2022-12-29T13:52:59.821Z,101407.50
2022-12-29T13:55:41.808Z,101408.28
2022-12-29T13:58:48.867Z,101408.69
2022-12-29T14:01:25.307Z,101403.38
2022-12-29T14:04:39.295Z,101410.28
2022-12-29T14:07:18.938Z,101421.94
2022-12-29T14:09:59.125Z,101422.25
2022-12-29T14:12:43.228Z,101418.16
2022-12-29T14:15:17.348Z,101416.00
2022-12-29T14:18:22.669Z,101402.50
2022-12-29T14:20:59.740Z,101401.50
2022-12-29T14:23:38.922Z,101404.84
2022-12-29T14:26:08.339Z,101413.41
2022-12-29T14:28:40.757Z,101406.28
2022-12-29T14:31:23.208Z,101414.19
2022-12-29T14:34:13.582Z,101413.59
2022-12-29T14:36:54.817Z,101416.34
2022-12-29T14:39:36.696Z,101420.78
2022-12-29T14:42:13.954Z,101422.38
2022-12-29T14:45:06.435Z,101418.19
2022-12-29T14:47:45.591Z,101413.91
2022-12-29T14:50:23.083Z,101407.66
2022-12-29T14:53:02.122Z,101413.00
2022-12-29T14:55:56.906Z,101400.94
2022-12-29T14:58:47.193Z,101402.03
2022-12-29T15:01:22.004Z,101396.63
2022-12-29T15:03:52.296Z,101402.88
2022-12-29T15:06:23.440Z,101406.63
2022-12-29T15:09:02.890Z,101401.66
2022-12-29T15:11:45.757Z,101384.66
2022-12-29T15:14:34.234Z,101388.63
2022-12-29T15:17:31.884Z,101385.81
2022-12-29T15:20:30.211Z,101385.81
2022-12-29T15:23:21.431Z,101390.81
2022-12-29T15:26:09.976Z,101396.50
2022-12-29T15:28:44.275Z,101404.97
2022-12-29T15:31:30.782Z,101407.28
2022-12-29T15:34:28.213Z,101399.19
2022-12-29T15:37:01.674Z,101400.38
2022-12-29T15:39:32.391Z,101389.25
2022-12-29T15:42:17.798Z,101377.00
2022-12-29T15:44:58.090Z,101378.19
2022-12-29T15:47:51.188Z,101379.13
2022-12-29T15:50:38.411Z,101395.03
2022-12-29T15:53:14.862Z,101399.63
2022-12-29T15:55:48.597Z,101389.59
2022-12-29T15:58:24.096Z,101378.22
2022-12-29T16:00:54.372Z,101370.88
2022-12-29T16:03:30.897Z,101373.13
2022-12-29T16:06:31.119Z,101376.47
2022-12-29T16:09:05.323Z,101375.84
2022-12-29T16:11:40.620Z,101369.97
2022-12-29T16:14:23.707Z,101375.31
2022-12-29T16:16:54.004Z,101376.66
2022-12-29T16:19:34.425Z,101391.28
2022-12-29T16:22:12.722Z,101395.56
2022-12-29T16:24:46.367Z,101398.25
2022-12-29T16:27:32.510Z,101401.38
2022-12-29T16:30:06.965Z,101402.44
2022-12-29T16:32:47.791Z,101407.16
2022-12-29T16:35:28.985Z,101420.00
2022-12-29T16:38:17.285Z,101408.19
2022-12-29T16:40:54.233Z,101415.78
2022-12-29T16:43:35.225Z,101418.19
2022-12-29T16:46:03.310Z,101421.03
2022-12-29T16:48:56.139Z,101408.81
2022-12-29T16:51:38.792Z,101399.38
2022-12-29T16:54:09.671Z,101389.25
2022-12-29T16:56:39.884Z,101397.31
2022-12-29T16:59:24.786Z,101406.25
2022-12-29T17:01:57.225Z,101412.25
2022-12-29T17:04:32.516Z,101413.88
2022-12-29T17:07:16.288Z,101423.88
2022-12-29T17:09:49.670Z,101438.75
2022-12-29T17:12:27.367Z,101445.31
2022-12-29T17:14:58.857Z,101458.13
2022-12-29T17:17:40.306Z,101467.75
2022-12-29T17:20:21.397Z,101456.81
2022-12-29T17:23:00.671Z,101451.97
2022-12-29T17:25:40.404Z,101447.16
2022-12-29T17:28:17.132Z,101448.75
2022-12-29T17:30:50.541Z,101453.88
2022-12-29T17:33:22.805Z,101455.53
2022-12-29T17:35:57.387Z,101457.09
2022-12-29T17:38:35.446Z,101450.94
2022-12-29T17:41:14.697Z,101447.75
2022-12-29T17:43:45.550Z,101435.06
2022-12-29T17:46:18.337Z,101431.84
2022-12-29T17:48:53.536Z,101428.66
2022-12-29T17:51:23.174Z,101438.25
2022-12-29T17:53:57.235Z,101454.25
2022-12-29T17:56:32.143Z,101459.16
2022-12-29T17:59:03.087Z,101460.47
2022-12-29T18:01:35.898Z,101452.38
2022-12-29T18:04:08.835Z,101453.22
2022-12-29T18:06:36.427Z,101456.84
2022-12-29T18:09:04.751Z,101453.56
2022-12-29T18:11:37.943Z,101447.03
2022-12-29T18:14:12.257Z,101442.09
2022-12-29T18:16:44.755Z,101445.66
2022-12-29T18:19:12.130Z,101454.88
2022-12-29T18:21:42.307Z,101462.16
2022-12-29T18:24:18.775Z,101456.97
2022-12-29T18:26:49.324Z,101445.22
2022-12-29T18:29:21.612Z,101445.16
2022-12-29T18:31:49.246Z,101447.63
2022-12-29T18:34:20.519Z,101432.66
2022-12-29T18:36:53.459Z,101434.66
2022-12-29T18:39:24.218Z,101436.69
2022-12-29T18:42:04.192Z,101443.88
2022-12-29T18:44:31.613Z,101442.22
2022-12-29T18:46:59.261Z,101429.59
2022-12-29T18:49:29.281Z,101439.69
2022-12-29T18:51:57.608Z,101436.84
2022-12-29T18:54:31.217Z,101434.38
2022-12-29T18:56:59.718Z,101434.50
2022-12-29T18:59:32.038Z,101431.97
2022-12-29T19:02:01.889Z,101430.78
2022-12-29T19:04:31.692Z,101413.91
2022-12-29T19:06:59.324Z,101412.34
2022-12-29T19:09:29.679Z,101419.97
2022-12-29T19:12:00.409Z,101428.44
2022-12-29T19:14:33.073Z,101421.63
2022-12-29T19:17:00.541Z,101415.97
2022-12-29T19:19:30.855Z,101420.44
2022-12-29T19:22:01.056Z,101418.00
2022-12-29T19:24:28.417Z,101416.28
2022-12-29T19:27:01.530Z,101419.56
2022-12-29T19:29:31.524Z,101416.28
2022-12-29T19:32:01.355Z,101415.84
2022-12-29T19:34:28.614Z,101413.41
2022-12-29T19:36:58.408Z,101415.03
2022-12-29T19:39:26.148Z,101420.25
2022-12-29T19:41:59.037Z,101412.59
2022-12-29T19:44:32.154Z,101427.91
2022-12-29T19:46:59.828Z,101425.44
2022-12-29T19:49:27.355Z,101422.63
2022-12-29T19:51:56.112Z,101420.88
2022-12-29T19:54:23.452Z,101415.22
2022-12-29T19:56:53.529Z,101410.44
2022-12-29T19:59:21.969Z,101406.31
2022-12-29T20:01:52.387Z,101399.47
2022-12-29T20:04:22.231Z,101394.69
2022-12-29T20:06:50.030Z,101395.53
2022-12-29T20:09:20.364Z,101393.53
2022-12-29T20:11:50.953Z,101407.19
2022-12-29T20:14:21.206Z,101411.63
2022-12-29T20:17:10.067Z,101403.94
2022-12-29T20:19:42.633Z,101401.09
2022-12-29T20:22:10.126Z,101404.28
2022-12-29T20:24:45.188Z,101407.13
2022-12-29T20:27:20.647Z,101404.22
2022-12-29T20:29:52.415Z,101399.47
2022-12-29T20:32:25.285Z,101404.34
2022-12-29T20:34:54.092Z,101406.75
2022-12-29T20:37:22.326Z,101405.09
2022-12-29T20:39:52.498Z,101401.84
2022-12-29T20:42:22.140Z,101401.75
2022-12-29T20:44:50.932Z,101417.88
2022-12-29T20:47:18.321Z,101409.06
2022-12-29T20:49:50.486Z,101406.09
2022-12-29T20:52:20.951Z,101410.63
2022-12-29T20:54:48.575Z,101409.00
2022-12-29T20:57:18.394Z,101411.38
2022-12-29T20:59:48.723Z,101404.53
2022-12-29T21:02:23.000Z,101407.66
2022-12-29T21:05:22.729Z,101408.84
2022-12-29T21:07:38.684Z,101407.22
2022-12-29T21:10:08.853Z,101404.84
2022-12-29T21:12:38.768Z,101404.03
2022-12-29T21:15:06.747Z,101403.09
2022-12-29T21:17:37.363Z,101404.38
2022-12-29T21:20:05.059Z,101408.75
2022-12-29T21:22:32.554Z,101397.44
2022-12-29T21:24:59.950Z,101388.28
2022-12-29T21:27:32.569Z,101378.19
2022-12-29T21:30:00.178Z,101383.03
2022-12-29T21:32:27.969Z,101378.09
2022-12-29T21:35:00.201Z,101384.53
2022-12-29T21:37:28.162Z,101383.84
2022-12-29T21:39:58.373Z,101391.47
2022-12-29T21:42:28.698Z,101395.50
2022-12-29T21:45:20.895Z,101395.03
2022-12-29T21:48:16.686Z,101408.66
2022-12-29T21:51:06.964Z,101396.31
2022-12-29T21:53:39.654Z,101397.03
2022-12-29T21:56:09.132Z,101393.41
2022-12-29T21:58:57.226Z,101396.22
2022-12-29T22:01:45.116Z,101408.31
2022-12-29T22:04:32.813Z,101413.16
2022-12-29T22:07:20.581Z,101414.78
2022-12-29T22:10:06.707Z,101418.06
2022-12-29T22:12:53.965Z,101421.16
2022-12-29T22:15:22.168Z,101426.41
2022-12-29T22:17:54.010Z,101421.50
2022-12-29T22:20:24.990Z,101417.53
2022-12-29T22:22:55.559Z,101422.72
2022-12-29T22:25:23.823Z,101421.91
2022-12-29T22:27:59.254Z,101415.88
2022-12-29T22:30:28.753Z,101400.53
2022-12-29T22:33:02.231Z,101398.88
2022-12-29T22:35:30.581Z,101397.31
2022-12-29T22:38:00.721Z,101405.34
2022-12-29T22:40:31.158Z,101409.00
2022-12-29T22:43:09.466Z,101398.81
2022-12-29T22:45:42.938Z,101394.72
2022-12-29T22:48:13.353Z,101387.44
2022-12-29T22:50:40.804Z,101393.56
2022-12-29T22:53:08.162Z,101390.34
2022-12-29T22:55:35.675Z,101387.44
2022-12-29T22:58:03.395Z,101392.00
2022-12-29T23:00:30.917Z,101394.38
2022-12-29T23:02:59.647Z,101390.72
2022-12-29T23:05:30.009Z,101383.88
2022-12-29T23:08:00.202Z,101373.25
2022-12-29T23:10:27.984Z,101366.16
2022-12-29T23:12:55.513Z,101355.88
2022-12-29T23:15:25.806Z,101358.91
2022-12-29T23:17:55.606Z,101375.50
2022-12-29T23:20:28.240Z,101370.00
2022-12-29T23:23:00.581Z,101383.72
2022-12-29T23:25:29.369Z,101375.06
2022-12-29T23:27:59.565Z,101361.38
2022-12-29T23:30:27.119Z,101359.56
2022-12-29T23:32:56.867Z,101354.72
2022-12-29T23:35:24.519Z,101344.97
2022-12-29T23:37:54.446Z,101359.50
2022-12-29T23:40:24.423Z,101364.81
2022-12-29T23:42:57.013Z,101344.22
2022-12-29T23:45:24.542Z,101338.56
2022-12-29T23:47:51.953Z,101329.06
2022-12-29T23:50:20.209Z,101329.06
2022-12-29T23:52:48.042Z,101329.88
2022-12-29T23:55:18.264Z,101329.13
2022-12-29T23:57:46.663Z,101328.22
